Time;durP1;ratioP1;P1;durP2;ratioP2;P2;SDS_P1;SDS_P2;PMS_P1;PMS_P2;Temp;Humidity;BMP_temperature;BMP_pressure;BME280_temperature;BME280_humidity;BME280_pressure;Samples;Min_cycle;Max_cycle;Signal;HPM_P1;HPM_P2
2023/10/21 00:01:26;;;;;;;6.70;3.90;;;;;;;;;;7368878;19;20070;-74
2023/10/21 00:03:52;;;;;;;8.23;3.55;;;;;;;;;;7366661;19;20329;-75
2023/10/21 00:06:17;;;;;;;8.20;4.35;;;;;;;;;;7393230;19;20048;-73
2023/10/21 00:08:42;;;;;;;6.93;3.70;;;;;;;;;;7403325;19;20010;-74
2023/10/21 00:11:12;;;;;;;7.25;3.67;;;;;;;;;;7400143;19;20003;-74
2023/10/21 00:13:38;;;;;;;6.88;3.63;;;;;;;;;;7386692;19;19998;-73
2023/10/21 00:16:04;;;;;;;6.35;3.97;;;;;;;;;;7369982;19;20073;-74
2023/10/21 00:18:30;;;;;;;9.32;4.00;;;;;;;;;;7391624;19;20016;-74
2023/10/21 00:20:55;;;;;;;7.15;3.33;;;;;;;;;;7367528;19;20003;-74
2023/10/21 00:23:21;;;;;;;6.82;3.60;;;;;;;;;;7364244;19;20006;-73
2023/10/21 00:25:47;;;;;;;7.68;3.65;;;;;;;;;;7368346;19;20010;-73
2023/10/21 00:28:13;;;;;;;5.97;3.67;;;;;;;;;;7368288;19;20041;-74
2023/10/21 00:30:38;;;;;;;6.32;3.50;;;;;;;;;;7368039;19;19995;-74
2023/10/21 00:33:03;;;;;;;6.10;3.50;;;;;;;;;;7388158;19;20006;-74
2023/10/21 00:35:31;;;;;;;8.75;3.50;;;;;;;;;;7366524;19;20013;-74
2023/10/21 00:37:56;;;;;;;4.95;2.95;;;;;;;;;;7383663;19;20046;-74
2023/10/21 00:40:22;;;;;;;8.90;3.45;;;;;;;;;;7391253;19;20017;-74
2023/10/21 00:42:47;;;;;;;6.82;3.70;;;;;;;;;;7385519;19;20067;-75
2023/10/21 00:45:12;;;;;;;6.97;3.78;;;;;;;;;;7387655;19;20009;-75
2023/10/21 00:47:37;;;;;;;6.40;3.67;;;;;;;;;;7365149;19;20014;-74
2023/10/21 00:50:04;;;;;;;5.35;3.60;;;;;;;;;;7365131;19;20014;-73
2023/10/21 00:52:30;;;;;;;6.45;3.78;;;;;;;;;;7364226;19;20018;-74
2023/10/21 00:54:59;;;;;;;7.57;3.60;;;;;;;;;;7364524;19;23150;-74
2023/10/21 00:57:25;;;;;;;6.38;3.55;;;;;;;;;;7386826;19;20003;-74
2023/10/21 00:59:50;;;;;;;5.50;3.33;;;;;;;;;;7363837;19;20017;-74
2023/10/21 01:02:16;;;;;;;5.70;3.00;;;;;;;;;;7365283;19;20018;-74
2023/10/21 01:04:41;;;;;;;14.60;2.80;;;;;;;;;;7365353;19;20018;-76
2023/10/21 01:07:17;;;;;;;4.38;2.30;;;;;;;;;;7367965;19;20419;-75
2023/10/21 01:09:42;;;;;;;7.68;2.15;;;;;;;;;;7367257;19;20572;-74
2023/10/21 01:12:08;;;;;;;5.80;2.10;;;;;;;;;;7389728;19;20002;-74
2023/10/21 01:14:33;;;;;;;5.13;2.28;;;;;;;;;;7367666;19;20014;-75
2023/10/21 01:16:58;;;;;;;3.42;1.75;;;;;;;;;;7367670;19;20006;-75
2023/10/21 01:19:24;;;;;;;2.55;1.60;;;;;;;;;;7368750;19;20049;-74
2023/10/21 01:21:49;;;;;;;3.30;1.70;;;;;;;;;;7367234;19;20003;-74
2023/10/21 01:24:14;;;;;;;2.30;1.50;;;;;;;;;;7387683;19;20002;-74
2023/10/21 01:26:39;;;;;;;5.63;1.95;;;;;;;;;;7365722;19;20006;-75
2023/10/21 01:29:10;;;;;;;2.58;1.40;;;;;;;;;;7366565;19;20368;-74
2023/10/21 01:31:36;;;;;;;2.78;1.40;;;;;;;;;;7365565;19;20006;-73
2023/10/21 01:34:01;;;;;;;4.47;1.60;;;;;;;;;;7362795;19;20015;-75
2023/10/21 01:36:27;;;;;;;3.63;1.70;;;;;;;;;;7387634;19;20018;-74
2023/10/21 01:38:53;;;;;;;1.98;1.48;;;;;;;;;;7366093;19;20006;-75
2023/10/21 01:41:18;;;;;;;6.10;1.60;;;;;;;;;;7388685;19;20007;-74
2023/10/21 01:43:44;;;;;;;3.25;1.60;;;;;;;;;;7385475;19;20045;-73
2023/10/21 01:46:09;;;;;;;3.83;1.70;;;;;;;;;;7371810;19;20013;-74
2023/10/21 01:48:35;;;;;;;3.42;1.45;;;;;;;;;;7400220;19;20071;-73
2023/10/21 01:51:04;;;;;;;2.08;1.63;;;;;;;;;;7379864;19;20074;-73
2023/10/21 01:53:31;;;;;;;2.55;1.45;;;;;;;;;;7377232;19;20010;-74
2023/10/21 01:56:00;;;;;;;2.90;1.63;;;;;;;;;;7379949;19;20011;-75
2023/10/21 01:58:26;;;;;;;1.67;1.50;;;;;;;;;;7378711;19;20026;-75
2023/10/21 02:00:52;;;;;;;2.85;1.65;;;;;;;;;;7380513;19;20041;-75
2023/10/21 02:03:17;;;;;;;3.38;1.50;;;;;;;;;;7399194;19;20333;-75
2023/10/21 02:05:42;;;;;;;3.45;1.30;;;;;;;;;;7380816;19;20014;-74
2023/10/21 02:08:08;;;;;;;3.50;1.50;;;;;;;;;;7381787;19;20034;-74
2023/10/21 02:10:35;;;;;;;1.92;1.33;;;;;;;;;;7380837;19;20723;-74
2023/10/21 02:13:00;;;;;;;4.00;1.52;;;;;;;;;;7380142;19;20006;-74
2023/10/21 02:15:25;;;;;;;3.63;1.30;;;;;;;;;;7403326;19;20013;-74
2023/10/21 02:17:51;;;;;;;4.57;1.42;;;;;;;;;;7385103;19;20020;-74
2023/10/21 02:20:16;;;;;;;3.67;1.75;;;;;;;;;;7384875;19;20590;-72
2023/10/21 02:22:42;;;;;;;1.58;1.20;;;;;;;;;;7381758;19;20029;-73
2023/10/21 02:25:11;;;;;;;1.17;1.10;;;;;;;;;;7379869;19;20030;-73
2023/10/21 02:27:37;;;;;;;1.13;0.95;;;;;;;;;;7393147;19;20050;-74
2023/10/21 02:30:04;;;;;;;1.40;0.80;;;;;;;;;;7396204;19;20349;-74
2023/10/21 02:32:30;;;;;;;0.63;0.63;;;;;;;;;;7377757;19;20015;-74
2023/10/21 02:34:55;;;;;;;1.80;0.60;;;;;;;;;;7378190;19;20026;-73
2023/10/21 02:37:22;;;;;;;1.00;0.65;;;;;;;;;;7378373;19;20082;-75
2023/10/21 02:39:47;;;;;;;0.50;0.50;;;;;;;;;;7378606;19;20006;-73
2023/10/21 02:42:12;;;;;;;0.50;0.50;;;;;;;;;;7400114;19;20469;-75
2023/10/21 02:44:37;;;;;;;0.50;0.50;;;;;;;;;;7375851;19;20014;-73
2023/10/21 02:47:03;;;;;;;0.40;0.40;;;;;;;;;;7378852;19;20010;-74
2023/10/21 02:49:28;;;;;;;0.65;0.55;;;;;;;;;;7377752;19;20101;-74
2023/10/21 02:51:55;;;;;;;0.52;0.52;;;;;;;;;;7379063;19;20467;-72
2023/10/21 02:54:20;;;;;;;1.08;0.55;;;;;;;;;;7397307;19;20014;-73
2023/10/21 02:56:45;;;;;;;0.60;0.60;;;;;;;;;;7377218;19;20013;-73
2023/10/21 02:59:11;;;;;;;1.65;0.70;;;;;;;;;;7373021;19;20021;-73
2023/10/21 03:01:36;;;;;;;0.60;0.60;;;;;;;;;;7370914;19;20460;-73
2023/10/21 03:04:02;;;;;;;1.25;0.70;;;;;;;;;;7365998;19;20567;-73
2023/10/21 03:06:27;;;;;;;1.95;0.80;;;;;;;;;;7392649;19;20451;-73
2023/10/21 03:08:52;;;;;;;0.60;0.60;;;;;;;;;;7370634;19;20017;-73
2023/10/21 03:11:18;;;;;;;0.95;0.55;;;;;;;;;;7370007;19;20404;-73
2023/10/21 03:13:43;;;;;;;1.67;0.73;;;;;;;;;;7369194;19;20020;-73
2023/10/21 03:16:10;;;;;;;1.35;0.57;;;;;;;;;;7370839;19;20014;-73
2023/10/21 03:18:37;;;;;;;0.85;0.70;;;;;;;;;;7390461;19;20006;-74
2023/10/21 03:21:04;;;;;;;0.90;0.80;;;;;;;;;;7389727;19;20006;-73
2023/10/21 03:23:30;;;;;;;0.88;0.80;;;;;;;;;;7366246;19;20010;-74
2023/10/21 03:25:56;;;;;;;1.08;0.75;;;;;;;;;;7370736;19;20003;-74
2023/10/21 03:28:22;;;;;;;0.70;0.70;;;;;;;;;;7370295;19;20007;-72
2023/10/21 03:30:49;;;;;;;0.80;0.80;;;;;;;;;;7370025;19;20357;-73
2023/10/21 03:33:15;;;;;;;1.73;0.90;;;;;;;;;;7389286;19;20747;-73
2023/10/21 03:35:40;;;;;;;0.98;0.80;;;;;;;;;;7368805;19;20021;-74
2023/10/21 03:38:06;;;;;;;1.40;0.93;;;;;;;;;;7369926;19;20488;-72
2023/10/21 03:40:31;;;;;;;0.95;0.95;;;;;;;;;;7369909;19;20468;-72
2023/10/21 03:42:56;;;;;;;1.00;0.93;;;;;;;;;;7368486;19;20291;-73
2023/10/21 03:45:22;;;;;;;1.30;0.90;;;;;;;;;;7390978;19;19994;-74
2023/10/21 03:47:48;;;;;;;2.03;1.10;;;;;;;;;;7369242;19;20730;-73
2023/10/21 03:50:13;;;;;;;2.40;0.98;;;;;;;;;;7368030;19;20094;-73
2023/10/21 03:52:39;;;;;;;1.17;1.08;;;;;;;;;;7368236;19;20014;-73
2023/10/21 03:55:05;;;;;;;1.10;1.00;;;;;;;;;;7368926;19;20015;-72
2023/10/21 03:57:31;;;;;;;1.75;1.02;;;;;;;;;;7390543;19;20003;-73
2023/10/21 03:59:57;;;;;;;1.30;1.20;;;;;;;;;;7369226;19;20025;-75
2023/10/21 04:02:23;;;;;;;1.63;1.10;;;;;;;;;;7363269;19;20041;-72
2023/10/21 04:04:48;;;;;;;2.08;0.93;;;;;;;;;;7367351;19;20663;-72
2023/10/21 04:07:13;;;;;;;3.83;1.30;;;;;;;;;;7369785;19;20006;-72
2023/10/21 04:09:39;;;;;;;1.58;1.30;;;;;;;;;;7368894;19;20418;-75
2023/10/21 04:12:05;;;;;;;2.45;1.50;;;;;;;;;;7389142;19;20024;-73
2023/10/21 04:14:30;;;;;;;1.50;1.30;;;;;;;;;;7367235;19;20006;-73
2023/10/21 04:16:56;;;;;;;2.75;1.40;;;;;;;;;;7367493;19;20389;-73
2023/10/21 04:19:21;;;;;;;2.45;2.10;;;;;;;;;;7369090;19;20007;-74
2023/10/21 04:21:46;;;;;;;3.63;1.70;;;;;;;;;;7367503;19;20002;-72
2023/10/21 04:24:12;;;;;;;3.17;1.80;;;;;;;;;;7389398;19;20573;-73
2023/10/21 04:26:37;;;;;;;3.22;1.70;;;;;;;;;;7368801;19;20006;-73
2023/10/21 04:29:16;;;;;;;2.70;1.70;;;;;;;;;;7369604;19;20014;-74
2023/10/21 04:31:41;;;;;;;2.30;1.70;;;;;;;;;;7357335;19;20010;-74
2023/10/21 04:34:06;;;;;;;1.63;1.50;;;;;;;;;;7366794;19;20023;-73
2023/10/21 04:36:32;;;;;;;3.25;1.75;;;;;;;;;;7405443;19;19994;-72
2023/10/21 04:38:57;;;;;;;4.57;1.42;;;;;;;;;;7388034;19;20023;-72
2023/10/21 04:41:22;;;;;;;3.08;1.42;;;;;;;;;;7384261;19;20014;-73
2023/10/21 04:43:47;;;;;;;1.52;1.42;;;;;;;;;;7364926;19;20002;-75
2023/10/21 04:46:13;;;;;;;1.60;1.50;;;;;;;;;;7364756;19;20017;-74
2023/10/21 04:48:39;;;;;;;3.88;1.65;;;;;;;;;;7364051;19;20005;-75
2023/10/21 04:51:04;;;;;;;1.85;1.30;;;;;;;;;;7387041;19;20001;-72
2023/10/21 04:53:30;;;;;;;5.97;1.55;;;;;;;;;;7361099;19;20022;-73
2023/10/21 04:55:55;;;;;;;1.38;1.23;;;;;;;;;;7365594;19;20066;-73
2023/10/21 04:58:20;;;;;;;4.13;1.50;;;;;;;;;;7365601;19;20010;-73
2023/10/21 05:00:46;;;;;;;4.10;1.80;;;;;;;;;;7364466;19;20013;-73
2023/10/21 05:03:11;;;;;;;2.92;1.38;;;;;;;;;;7384334;19;20337;-72
2023/10/21 05:05:37;;;;;;;4.03;1.90;;;;;;;;;;7364458;19;20007;-72
2023/10/21 05:08:03;;;;;;;2.17;1.48;;;;;;;;;;7366044;19;20469;-74
2023/10/21 05:10:29;;;;;;;2.95;1.45;;;;;;;;;;7365017;19;20516;-72
2023/10/21 05:12:55;;;;;;;4.38;1.75;;;;;;;;;;7366282;19;20003;-74
2023/10/21 05:15:20;;;;;;;3.10;1.60;;;;;;;;;;7384911;19;20008;-74
2023/10/21 05:17:45;;;;;;;2.88;1.40;;;;;;;;;;7364412;19;20026;-74
2023/10/21 05:20:11;;;;;;;2.25;1.45;;;;;;;;;;7365982;19;20027;-73
2023/10/21 05:22:37;;;;;;;3.75;1.70;;;;;;;;;;7362709;19;20066;-73
2023/10/21 05:25:02;;;;;;;2.85;1.60;;;;;;;;;;7363816;19;20010;-75
2023/10/21 05:27:27;;;;;;;3.17;1.60;;;;;;;;;;7386104;19;19998;-73
2023/10/21 05:29:53;;;;;;;2.85;1.77;;;;;;;;;;7364343;19;20610;-73
2023/10/21 05:32:18;;;;;;;2.38;1.70;;;;;;;;;;7363309;19;20547;-73
2023/10/21 05:34:43;;;;;;;3.45;1.80;;;;;;;;;;7363132;19;20034;-73
2023/10/21 05:37:09;;;;;;;3.45;1.90;;;;;;;;;;7365158;19;19998;-74
2023/10/21 05:39:37;;;;;;;2.20;1.80;;;;;;;;;;7384644;19;20003;-74
2023/10/21 05:42:03;;;;;;;4.45;2.22;;;;;;;;;;7363728;19;20010;-74
2023/10/21 05:44:29;;;;;;;3.38;1.83;;;;;;;;;;7362161;19;20010;-72
2023/10/21 05:46:58;;;;;;;4.22;1.98;;;;;;;;;;7363240;19;20037;-72
2023/10/21 05:49:23;;;;;;;3.17;1.70;;;;;;;;;;7363349;19;20075;-73
2023/10/21 05:51:49;;;;;;;4.38;2.30;;;;;;;;;;7364258;19;20341;-73
2023/10/21 05:54:14;;;;;;;2.00;1.80;;;;;;;;;;7387139;19;20017;-74
2023/10/21 05:56:39;;;;;;;3.83;1.90;;;;;;;;;;7355074;19;20018;-74
2023/10/21 05:59:05;;;;;;;3.63;2.20;;;;;;;;;;7366256;19;20031;-72
2023/10/21 06:01:31;;;;;;;2.83;1.95;;;;;;;;;;7366045;19;20048;-73
2023/10/21 06:03:56;;;;;;;3.10;2.00;;;;;;;;;;7365376;19;20040;-74
2023/10/21 06:06:22;;;;;;;3.00;1.92;;;;;;;;;;7388282;19;20046;-74
2023/10/21 06:08:48;;;;;;;3.40;1.70;;;;;;;;;;7365826;19;20398;-72
2023/10/21 06:11:13;;;;;;;6.43;2.25;;;;;;;;;;7365857;19;20014;-73
2023/10/21 06:13:38;;;;;;;5.55;1.70;;;;;;;;;;7362114;19;20101;-73
2023/10/21 06:16:04;;;;;;;2.22;1.50;;;;;;;;;;7362094;19;20010;-74
2023/10/21 06:18:30;;;;;;;2.55;1.58;;;;;;;;;;7386387;19;20010;-73
2023/10/21 06:20:55;;;;;;;2.30;1.67;;;;;;;;;;7363439;19;20070;-73
2023/10/21 06:23:21;;;;;;;3.47;1.52;;;;;;;;;;7360267;19;20049;-74
2023/10/21 06:25:47;;;;;;;2.80;1.30;;;;;;;;;;7364636;19;20086;-74
2023/10/21 06:28:15;;;;;;;3.33;1.35;;;;;;;;;;7363642;19;20503;-73
2023/10/21 06:30:41;;;;;;;3.20;1.40;;;;;;;;;;7361301;19;20048;-72
2023/10/21 06:33:08;;;;;;;1.15;0.88;;;;;;;;;;7384267;19;20687;-73
2023/10/21 06:35:34;;;;;;;1.20;0.73;;;;;;;;;;7367077;19;20010;-74
2023/10/21 06:38:00;;;;;;;1.15;1.10;;;;;;;;;;7371867;19;20620;-74
2023/10/21 06:40:25;;;;;;;1.27;1.10;;;;;;;;;;7369868;19;20071;-72
2023/10/21 06:42:50;;;;;;;1.35;1.05;;;;;;;;;;7368290;19;20016;-73
2023/10/21 06:45:15;;;;;;;0.90;0.90;;;;;;;;;;7388902;19;20006;-73
2023/10/21 06:47:41;;;;;;;3.92;1.23;;;;;;;;;;7369442;19;20006;-74
2023/10/21 06:50:07;;;;;;;0.98;0.90;;;;;;;;;;7371980;19;20354;-73
2023/10/21 06:52:32;;;;;;;1.30;0.90;;;;;;;;;;7370832;19;20416;-73
2023/10/21 06:55:00;;;;;;;1.33;1.10;;;;;;;;;;7372991;19;20018;-74
2023/10/21 06:57:27;;;;;;;0.93;0.90;;;;;;;;;;7400191;19;20558;-73
2023/10/21 06:59:52;;;;;;;1.13;1.02;;;;;;;;;;7376754;19;20007;-75
2023/10/21 07:02:17;;;;;;;1.30;1.20;;;;;;;;;;7374882;19;20050;-76
2023/10/21 07:04:43;;;;;;;2.58;1.20;;;;;;;;;;7371369;19;20037;-76
2023/10/21 07:07:10;;;;;;;1.55;1.10;;;;;;;;;;7373883;19;20011;-76
2023/10/21 07:09:37;;;;;;;1.23;1.10;;;;;;;;;;7396146;19;20374;-75
2023/10/21 07:12:03;;;;;;;1.27;1.10;;;;;;;;;;7371459;19;20488;-75
2023/10/21 07:14:29;;;;;;;1.85;1.10;;;;;;;;;;7372350;19;20086;-76
2023/10/21 07:17:00;;;;;;;1.42;0.95;;;;;;;;;;7372548;19;20006;-75
2023/10/21 07:19:25;;;;;;;0.88;0.80;;;;;;;;;;7374059;19;20010;-74
2023/10/21 07:21:51;;;;;;;0.85;0.85;;;;;;;;;;7371545;19;20014;-76
2023/10/21 07:24:16;;;;;;;1.05;1.00;;;;;;;;;;7392107;19;20006;-76
2023/10/21 07:26:42;;;;;;;1.08;0.80;;;;;;;;;;7371021;19;20082;-76
2023/10/21 07:29:07;;;;;;;1.75;1.10;;;;;;;;;;7372473;19;20381;-75
2023/10/21 07:31:34;;;;;;;0.80;0.80;;;;;;;;;;7372113;19;20509;-75
2023/10/21 07:33:59;;;;;;;1.38;0.98;;;;;;;;;;7369180;19;20032;-76
2023/10/21 07:36:24;;;;;;;2.13;0.90;;;;;;;;;;7392700;19;20271;-75
2023/10/21 07:38:50;;;;;;;1.50;0.95;;;;;;;;;;7371354;19;20006;-75
2023/10/21 07:41:16;;;;;;;2.92;0.88;;;;;;;;;;7371926;19;20100;-75
2023/10/21 07:43:41;;;;;;;3.13;1.35;;;;;;;;;;7370223;19;20016;-76
2023/10/21 07:46:07;;;;;;;1.75;0.95;;;;;;;;;;7370629;19;20022;-78
2023/10/21 07:48:32;;;;;;;1.27;0.80;;;;;;;;;;7393703;19;20011;-77
2023/10/21 07:50:58;;;;;;;1.45;0.80;;;;;;;;;;7371538;19;19998;-75
2023/10/21 07:53:23;;;;;;;1.15;1.05;;;;;;;;;;7368532;19;20437;-75
2023/10/21 07:55:53;;;;;;;1.23;0.90;;;;;;;;;;7371981;19;20020;-75
2023/10/21 07:58:18;;;;;;;1.15;0.90;;;;;;;;;;7372876;19;20085;-74
2023/10/21 08:00:43;;;;;;;1.10;0.90;;;;;;;;;;7371986;19;20500;-76
2023/10/21 08:03:09;;;;;;;2.90;1.10;;;;;;;;;;7393278;19;20009;-77
2023/10/21 08:05:34;;;;;;;3.72;1.48;;;;;;;;;;7371569;19;20014;-75
2023/10/21 08:08:00;;;;;;;2.17;1.10;;;;;;;;;;7371266;19;20014;-75
2023/10/21 08:10:25;;;;;;;2.22;1.00;;;;;;;;;;7369964;19;20022;-75
2023/10/21 08:12:50;;;;;;;1.40;1.00;;;;;;;;;;7369689;19;20006;-74
2023/10/21 08:15:16;;;;;;;2.15;0.98;;;;;;;;;;7390783;19;20002;-75
2023/10/21 08:17:42;;;;;;;2.47;1.00;;;;;;;;;;7368537;19;20021;-75
2023/10/21 08:20:07;;;;;;;3.20;1.00;;;;;;;;;;7367448;19;20014;-76
2023/10/21 08:22:33;;;;;;;3.95;1.40;;;;;;;;;;7363237;19;20003;-74
2023/10/21 08:24:59;;;;;;;3.45;1.40;;;;;;;;;;7367604;19;20018;-75
2023/10/21 08:27:24;;;;;;;3.65;1.10;;;;;;;;;;7391050;19;20031;-76
2023/10/21 08:29:50;;;;;;;2.42;1.20;;;;;;;;;;7367104;19;20023;-75
2023/10/21 08:32:15;;;;;;;3.83;1.40;;;;;;;;;;7365996;19;20021;-75
2023/10/21 08:34:41;;;;;;;2.70;1.20;;;;;;;;;;7367916;19;20106;-76
2023/10/21 08:37:07;;;;;;;2.30;1.08;;;;;;;;;;7368816;19;20018;-75
2023/10/21 08:39:34;;;;;;;4.13;1.15;;;;;;;;;;7384670;19;20014;-74
2023/10/21 08:42:00;;;;;;;2.97;1.17;;;;;;;;;;7377391;19;20484;-72
2023/10/21 08:44:25;;;;;;;4.43;1.23;;;;;;;;;;7380219;19;20007;-73
2023/10/21 08:46:54;;;;;;;6.55;3.17;;;;;;;;;;7365740;19;20537;-73
2023/10/21 08:49:20;;;;;;;9.63;2.88;;;;;;;;;;7364069;19;20030;-73
2023/10/21 08:51:45;;;;;;;3.97;1.40;;;;;;;;;;7363312;19;20006;-72
2023/10/21 08:54:12;;;;;;;4.72;1.20;;;;;;;;;;7384313;19;20053;-73
2023/10/21 08:56:37;;;;;;;5.55;1.42;;;;;;;;;;7361102;19;20003;-73
2023/10/21 08:59:03;;;;;;;5.45;1.35;;;;;;;;;;7365215;19;20493;-73
2023/10/21 09:01:29;;;;;;;2.90;1.25;;;;;;;;;;7364312;19;20006;-74
2023/10/21 09:03:56;;;;;;;3.63;1.30;;;;;;;;;;7362838;19;19995;-74
2023/10/21 09:06:21;;;;;;;3.33;1.10;;;;;;;;;;7386468;19;20036;-73
2023/10/21 09:08:48;;;;;;;8.10;4.20;;;;;;;;;;7363350;19;20014;-73
2023/10/21 09:11:16;;;;;;;4.30;1.70;;;;;;;;;;7364304;19;20038;-73
2023/10/21 09:13:42;;;;;;;2.03;1.20;;;;;;;;;;7364007;19;20010;-73
2023/10/21 09:16:20;;;;;;;2.67;1.20;;;;;;;;;;7361912;19;20018;-73
2023/10/21 09:19:07;;;;;;;7.72;1.70;;;;;;;;;;7362447;19;20094;-73
2023/10/21 09:21:37;;;;;;;3.78;1.10;;;;;;;;;;7384326;19;20515;-74
2023/10/21 09:24:11;;;;;;;3.72;1.38;;;;;;;;;;7362425;19;20325;-72
2023/10/21 09:26:40;;;;;;;2.70;1.20;;;;;;;;;;7364290;19;20738;-73
2023/10/21 09:29:06;;;;;;;2.97;1.10;;;;;;;;;;7365220;19;20530;-73
2023/10/21 09:32:01;;;;;;;2.20;1.20;;;;;;;;;;7362212;19;20006;-72
2023/10/21 09:34:27;;;;;;;2.15;1.38;;;;;;;;;;7360898;19;20017;-73
2023/10/21 09:37:01;;;;;;;3.13;1.20;;;;;;;;;;7362264;19;19995;-72
2023/10/21 09:39:33;;;;;;;3.00;1.23;;;;;;;;;;7384367;19;20003;-72
2023/10/21 09:42:00;;;;;;;3.55;1.40;;;;;;;;;;7359492;19;20021;-72
2023/10/21 09:44:25;;;;;;;4.10;1.15;;;;;;;;;;7362217;19;20011;-72
2023/10/21 09:46:54;;;;;;;3.58;1.40;;;;;;;;;;7364399;19;20115;-73
2023/10/21 09:49:19;;;;;;;4.10;1.20;;;;;;;;;;7364441;19;20010;-73
2023/10/21 09:52:04;;;;;;;4.15;1.35;;;;;;;;;;7367844;19;20025;-72
2023/10/21 09:54:43;;;;;;;4.32;1.20;;;;;;;;;;7389485;19;20010;-72
2023/10/21 09:57:10;;;;;;;7.22;1.27;;;;;;;;;;7371789;19;19998;-72
2023/10/21 09:59:37;;;;;;;3.55;1.30;;;;;;;;;;7367518;19;20082;-71
2023/10/21 10:02:04;;;;;;;5.22;1.38;;;;;;;;;;7362532;19;20488;-73
2023/10/21 10:04:31;;;;;;;3.45;1.20;;;;;;;;;;7362738;19;20028;-71
2023/10/21 10:06:58;;;;;;;2.65;1.30;;;;;;;;;;7362971;19;20195;-72
2023/10/21 10:09:26;;;;;;;4.47;1.20;;;;;;;;;;7391637;19;20415;-74
2023/10/21 10:11:58;;;;;;;4.72;1.20;;;;;;;;;;7368939;19;20007;-73
2023/10/21 10:14:25;;;;;;;4.10;1.48;;;;;;;;;;7368663;19;20026;-74
2023/10/21 10:16:51;;;;;;;6.90;4.30;;;;;;;;;;7371622;19;20010;-74
2023/10/21 10:19:37;;;;;;;2.40;1.10;;;;;;;;;;7370198;19;20364;-73
2023/10/21 10:22:30;;;;;;;4.05;1.15;;;;;;;;;;7373195;19;20018;-74
2023/10/21 10:25:04;;;;;;;3.58;1.05;;;;;;;;;;7370891;19;20002;-73
2023/10/21 10:27:38;;;;;;;2.60;1.20;;;;;;;;;;7395808;19;20007;-73
2023/10/21 10:30:08;;;;;;;2.88;1.13;;;;;;;;;;7373382;19;20002;-74
2023/10/21 10:32:43;;;;;;;5.88;1.73;;;;;;;;;;7370749;19;20019;-73
2023/10/21 10:35:08;;;;;;;3.60;1.35;;;;;;;;;;7370960;19;20014;-74
2023/10/21 10:37:34;;;;;;;5.00;1.55;;;;;;;;;;7372141;19;20017;-73
2023/10/21 10:40:05;;;;;;;2.00;1.10;;;;;;;;;;7371475;19;20008;-73
2023/10/21 10:42:34;;;;;;;4.35;1.50;;;;;;;;;;7392891;19;19999;-73
2023/10/21 10:44:59;;;;;;;4.93;1.40;;;;;;;;;;7370994;19;19998;-73
2023/10/21 10:47:26;;;;;;;7.18;1.40;;;;;;;;;;7371804;19;20117;-74
2023/10/21 10:49:59;;;;;;;3.65;1.20;;;;;;;;;;7370859;19;20009;-76
2023/10/21 10:52:31;;;;;;;4.80;1.92;;;;;;;;;;7369625;19;20005;-74
2023/10/21 10:54:57;;;;;;;3.88;1.20;;;;;;;;;;7383730;19;20075;-74
2023/10/21 10:57:23;;;;;;;5.38;1.60;;;;;;;;;;7398569;19;20006;-74
2023/10/21 10:59:50;;;;;;;3.85;1.25;;;;;;;;;;7369640;19;20114;-73
2023/10/21 11:02:16;;;;;;;6.68;1.30;;;;;;;;;;7368032;19;20140;-70
2023/10/21 11:04:44;;;;;;;4.30;1.23;;;;;;;;;;7370166;19;21029;-74
2023/10/21 11:07:11;;;;;;;4.72;1.40;;;;;;;;;;7370413;19;20078;-73
2023/10/21 11:09:36;;;;;;;3.33;1.30;;;;;;;;;;7389110;19;20017;-75
2023/10/21 11:12:02;;;;;;;6.15;1.20;;;;;;;;;;7374608;19;20093;-73
2023/10/21 11:14:27;;;;;;;4.85;1.73;;;;;;;;;;7368274;19;20070;-75
2023/10/21 11:16:53;;;;;;;4.97;1.10;;;;;;;;;;7368683;19;20013;-74
2023/10/21 11:19:18;;;;;;;5.65;1.85;;;;;;;;;;7367339;19;20030;-74
2023/10/21 11:21:48;;;;;;;2.90;1.25;;;;;;;;;;7367707;19;20010;-74
2023/10/21 11:24:14;;;;;;;4.05;1.30;;;;;;;;;;7388632;19;20007;-75
2023/10/21 11:26:40;;;;;;;6.05;1.20;;;;;;;;;;7370113;19;20010;-74
2023/10/21 11:29:06;;;;;;;4.07;1.35;;;;;;;;;;7371447;19;20470;-75
2023/10/21 11:31:33;;;;;;;3.03;1.20;;;;;;;;;;7370014;19;20009;-73
2023/10/21 11:34:13;;;;;;;3.58;1.30;;;;;;;;;;7364529;19;20484;-74
2023/10/21 11:36:40;;;;;;;4.47;1.20;;;;;;;;;;7370596;19;20062;-74
2023/10/21 11:39:13;;;;;;;3.88;1.27;;;;;;;;;;7390416;19;20078;-75
2023/10/21 11:41:46;;;;;;;4.07;1.80;;;;;;;;;;7367393;19;20002;-74
2023/10/21 11:44:15;;;;;;;5.13;1.52;;;;;;;;;;7366923;19;20029;-73
2023/10/21 11:46:41;;;;;;;4.35;1.40;;;;;;;;;;7365981;19;20077;-73
2023/10/21 11:49:16;;;;;;;4.15;1.40;;;;;;;;;;7366118;19;20014;-73
2023/10/21 11:51:42;;;;;;;3.95;1.48;;;;;;;;;;7371081;19;20017;-74
2023/10/21 11:54:30;;;;;;;5.00;1.67;;;;;;;;;;7389988;19;20014;-75
2023/10/21 12:15:18;;;;;;;4.55;1.40;;;;;;;;;;7367090;19;20002;-73
2023/10/21 12:18:22;;;;;;;4.18;1.30;;;;;;;;;;7365379;19;20006;-74
2023/10/21 12:34:20;;;;;;;4.25;1.35;;;;;;;;;;7363464;19;20027;-75
2023/10/21 12:36:43;;;;;;;3.28;1.38;;;;;;;;;;7365822;19;20082;-75
2023/10/21 12:41:41;;;;;;;4.10;1.48;;;;;;;;;;7364740;19;20375;-75
2023/10/21 12:44:13;;;;;;;4.30;1.60;;;;;;;;;;7365081;19;20519;-75
2023/10/21 12:46:40;;;;;;;4.22;1.20;;;;;;;;;;7382074;19;20018;-74
2023/10/21 12:49:17;;;;;;;7.25;1.40;;;;;;;;;;7381515;19;20011;-74
2023/10/21 12:51:42;;;;;;;3.40;1.23;;;;;;;;;;7369773;19;20030;-73
2023/10/21 12:54:10;;;;;;;3.92;1.13;;;;;;;;;;7384232;19;20369;-73
2023/10/21 12:56:39;;;;;;;4.13;1.30;;;;;;;;;;7364798;19;20011;-72
2023/10/21 12:59:06;;;;;;;4.32;1.27;;;;;;;;;;7364862;19;20028;-71
2023/10/21 13:01:35;;;;;;;5.13;1.40;;;;;;;;;;7362971;19;20002;-72
2023/10/21 13:04:01;;;;;;;3.13;1.20;;;;;;;;;;7360120;19;20019;-72
2023/10/21 13:06:26;;;;;;;5.43;1.40;;;;;;;;;;7383896;19;20006;-72
2023/10/21 13:08:52;;;;;;;4.90;1.45;;;;;;;;;;7363747;19;20079;-72
2023/10/21 13:11:18;;;;;;;4.50;1.40;;;;;;;;;;7362957;19;20026;-72
2023/10/21 13:13:44;;;;;;;5.50;1.40;;;;;;;;;;7355972;19;20025;-72
2023/10/21 13:16:10;;;;;;;2.40;1.13;;;;;;;;;;7355868;19;20011;-73
2023/10/21 13:18:35;;;;;;;6.10;1.40;;;;;;;;;;7385602;19;20002;-73
2023/10/21 13:21:01;;;;;;;4.00;1.40;;;;;;;;;;7361482;19;20483;-73
2023/10/21 13:23:27;;;;;;;4.32;1.40;;;;;;;;;;7359079;19;20030;-73
2023/10/21 13:25:53;;;;;;;5.00;1.70;;;;;;;;;;7362318;19;20904;-72
2023/10/21 13:28:19;;;;;;;3.00;1.02;;;;;;;;;;7361253;19;20065;-73
2023/10/21 13:30:47;;;;;;;4.13;1.52;;;;;;;;;;7363814;19;20009;-72
2023/10/21 13:33:14;;;;;;;3.80;1.05;;;;;;;;;;7382371;19;20013;-72
2023/10/21 13:35:40;;;;;;;4.32;1.15;;;;;;;;;;7361298;19;20074;-73
2023/10/21 13:38:05;;;;;;;4.28;1.45;;;;;;;;;;7362925;19;20098;-71
2023/10/21 13:40:30;;;;;;;3.40;1.40;;;;;;;;;;7362215;19;20010;-72
2023/10/21 13:42:57;;;;;;;6.28;1.50;;;;;;;;;;7362818;19;20164;-71
2023/10/21 13:45:26;;;;;;;4.93;1.50;;;;;;;;;;7404063;19;19995;-72
2023/10/21 13:47:51;;;;;;;3.90;1.30;;;;;;;;;;7392120;19;20007;-73
2023/10/21 13:50:18;;;;;;;2.93;1.00;;;;;;;;;;7386134;19;20033;-72
2023/10/21 13:52:46;;;;;;;4.00;1.30;;;;;;;;;;7366804;19;20251;-73
2023/10/21 13:55:16;;;;;;;6.55;1.75;;;;;;;;;;7367577;19;20467;-72
2023/10/21 13:57:46;;;;;;;5.93;1.30;;;;;;;;;;7364456;19;20034;-72
2023/10/21 14:00:33;;;;;;;7.00;1.63;;;;;;;;;;7385770;19;20344;-72
2023/10/21 14:03:10;;;;;;;4.88;1.48;;;;;;;;;;7360547;19;20010;-72
2023/10/21 14:05:36;;;;;;;7.03;1.45;;;;;;;;;;7363079;19;20006;-71
2023/10/21 14:08:02;;;;;;;3.92;1.27;;;;;;;;;;7363737;19;20524;-71
2023/10/21 14:10:27;;;;;;;3.88;1.25;;;;;;;;;;7362453;19;20002;-72
2023/10/21 14:12:53;;;;;;;6.38;1.98;;;;;;;;;;7361129;19;20010;-72
2023/10/21 14:15:18;;;;;;;5.93;1.33;;;;;;;;;;7382489;19;20027;-71
2023/10/21 14:17:47;;;;;;;5.15;1.30;;;;;;;;;;7361219;19;20006;-71
2023/10/21 14:20:12;;;;;;;4.47;1.75;;;;;;;;;;7359295;19;20034;-73
2023/10/21 14:22:39;;;;;;;4.20;1.40;;;;;;;;;;7361438;19;20010;-72
2023/10/21 14:25:05;;;;;;;5.47;1.70;;;;;;;;;;7360914;19;20011;-72
2023/10/21 14:27:31;;;;;;;7.18;1.55;;;;;;;;;;7382396;19;20017;-73
2023/10/21 14:30:14;;;;;;;4.97;1.90;;;;;;;;;;7361951;19;20006;-72
2023/10/21 14:32:41;;;;;;;3.42;1.17;;;;;;;;;;7361066;19;20014;-72
2023/10/21 14:35:07;;;;;;;5.20;1.40;;;;;;;;;;7358734;19;20011;-73
2023/10/21 14:37:37;;;;;;;5.10;1.48;;;;;;;;;;7361698;19;20015;-72
2023/10/21 14:40:08;;;;;;;4.13;1.30;;;;;;;;;;7363917;19;20014;-72
2023/10/21 14:42:37;;;;;;;4.00;1.55;;;;;;;;;;7382885;19;20034;-73
2023/10/21 14:45:08;;;;;;;5.43;1.40;;;;;;;;;;7360232;19;20014;-74
2023/10/21 14:47:35;;;;;;;4.55;1.23;;;;;;;;;;7361106;19;20077;-72
2023/10/21 14:50:02;;;;;;;9.25;1.48;;;;;;;;;;7362250;19;20011;-71
2023/10/21 14:52:28;;;;;;;4.30;1.30;;;;;;;;;;7363465;19;20007;-71
2023/10/21 14:54:55;;;;;;;3.83;1.48;;;;;;;;;;7366690;19;20006;-72
2023/10/21 14:57:21;;;;;;;3.63;1.40;;;;;;;;;;7395973;19;20002;-74
2023/10/21 14:59:46;;;;;;;4.13;1.20;;;;;;;;;;7371921;19;20017;-72
2023/10/21 15:02:12;;;;;;;3.75;1.40;;;;;;;;;;7368045;19;20090;-72
2023/10/21 15:04:38;;;;;;;5.20;1.50;;;;;;;;;;7365030;19;20018;-71
2023/10/21 15:07:03;;;;;;;4.15;1.40;;;;;;;;;;7368660;19;20476;-71
2023/10/21 15:09:28;;;;;;;5.03;1.70;;;;;;;;;;7388806;19;19999;-73
2023/10/21 15:11:54;;;;;;;4.88;1.50;;;;;;;;;;7368572;19;20007;-72
2023/10/21 15:14:19;;;;;;;7.43;1.48;;;;;;;;;;7366746;19;20002;-73
2023/10/21 15:16:44;;;;;;;5.25;1.52;;;;;;;;;;7368841;19;20035;-72